createdAt,value
2022-09-27T00:00:34.255Z,98175.22
2022-09-27T00:03:02.781Z,98180.44
2022-09-27T00:05:31.314Z,98179.59
2022-09-27T00:07:59.746Z,98185.72
2022-09-27T00:10:28.877Z,98192.72
2022-09-27T00:12:59.420Z,98187.47
2022-09-27T00:15:27.907Z,98190.97
2022-09-27T00:17:56.497Z,98192.72
2022-09-27T00:20:25.494Z,98190.09
2022-09-27T00:22:53.955Z,98196.19
2022-09-27T00:25:22.358Z,98197.94
2022-09-27T00:27:51.033Z,98201.41
2022-09-27T00:30:20.870Z,98203.19
2022-09-27T00:32:49.307Z,98211.03
2022-09-27T00:35:17.838Z,98203.16
2022-09-27T00:37:49.620Z,98216.28
2022-09-27T00:40:19.729Z,98203.19
2022-09-27T00:42:48.338Z,98209.28
2022-09-27T00:45:18.798Z,98210.19
2022-09-27T00:47:53.181Z,98210.19
2022-09-27T00:50:27.862Z,98209.28
2022-09-27T00:53:09.805Z,98207.53
2022-09-27T00:55:44.248Z,98208.41
2022-09-27T00:58:15.887Z,98208.44
2022-09-27T01:00:49.455Z,98206.69
2022-09-27T01:03:27.607Z,98203.19
2022-09-27T01:05:56.656Z,98209.28
2022-09-27T01:08:25.141Z,98206.69
2022-09-27T01:11:06.108Z,98215.41
2022-09-27T01:13:41.191Z,98217.16
2022-09-27T01:16:19.922Z,98216.28
2022-09-27T01:19:01.479Z,98216.25
2022-09-27T01:21:45.973Z,98220.66
2022-09-27T01:24:31.160Z,98219.78
2022-09-27T01:27:34.886Z,98224.13
2022-09-27T01:30:21.001Z,98218.91
2022-09-27T01:33:04.281Z,98218.91
2022-09-27T01:35:39.782Z,98219.78
2022-09-27T01:38:17.547Z,98221.50
2022-09-27T01:40:54.750Z,98224.16
2022-09-27T01:43:47.049Z,98221.50
2022-09-27T01:46:24.701Z,98223.25
2022-09-27T01:49:23.558Z,98225.84
2022-09-27T01:51:58.457Z,98230.22
2022-09-27T01:54:36.532Z,98224.97
2022-09-27T01:58:00.597Z,98226.75
2022-09-27T02:00:30.081Z,98229.34
2022-09-27T02:03:05.178Z,98228.50
2022-09-27T02:05:41.215Z,98224.13
2022-09-27T02:08:38.846Z,98227.63
2022-09-27T02:11:17.043Z,98232.84
2022-09-27T02:13:59.171Z,98228.50
2022-09-27T02:16:50.010Z,98235.47
2022-09-27T02:19:33.432Z,98238.09
2022-09-27T02:22:16.090Z,98243.31
2022-09-27T02:24:49.553Z,98238.94
2022-09-27T02:27:23.586Z,98229.38
2022-09-27T02:30:00.209Z,98238.97
2022-09-27T02:32:29.163Z,98247.66
2022-09-27T02:35:02.497Z,98244.19
2022-09-27T02:37:31.445Z,98252.03
2022-09-27T02:40:00.666Z,98255.53
2022-09-27T02:42:29.563Z,98255.53
2022-09-27T02:44:58.589Z,98268.59
2022-09-27T02:47:40.362Z,98258.13
2022-09-27T02:50:25.587Z,98260.75
2022-09-27T02:53:23.106Z,98260.75
2022-09-27T02:56:07.202Z,98268.56
2022-09-27T02:59:04.811Z,98273.81
2022-09-27T03:02:03.240Z,98265.97
2022-09-27T03:04:42.201Z,98263.34
2022-09-27T03:07:13.768Z,98263.34
2022-09-27T03:09:44.876Z,98262.47
2022-09-27T03:12:13.698Z,98272.09
2022-09-27T03:14:42.178Z,98268.59
2022-09-27T03:17:30.507Z,98266.00
2022-09-27T03:20:18.954Z,98273.84
2022-09-27T03:22:53.532Z,98268.59
2022-09-27T03:25:22.305Z,98277.31
2022-09-27T03:27:51.138Z,98282.53
2022-09-27T03:30:20.196Z,98282.53
2022-09-27T03:32:48.750Z,98292.13
2022-09-27T03:35:37.941Z,98281.66
2022-09-27T03:38:08.126Z,98286.88
2022-09-27T03:40:37.167Z,98288.66
2022-09-27T03:43:07.381Z,98292.13
2022-09-27T03:45:35.911Z,98281.69
2022-09-27T03:48:08.285Z,98291.25
2022-09-27T03:50:36.943Z,98294.72
2022-09-27T03:53:05.801Z,98286.91
2022-09-27T03:55:35.954Z,98282.53
2022-09-27T03:58:05.212Z,98295.59
2022-09-27T04:00:34.219Z,98293.88
2022-09-27T04:03:02.819Z,98291.28
2022-09-27T04:05:31.192Z,98295.63
2022-09-27T04:08:10.999Z,98305.22
2022-09-27T04:10:43.000Z,98302.59
2022-09-27T04:13:11.475Z,98297.34
2022-09-27T04:15:49.950Z,98295.59
2022-09-27T04:18:39.362Z,98302.56
2022-09-27T04:21:13.847Z,98303.44
2022-09-27T04:23:49.211Z,98294.75
2022-09-27T04:26:21.018Z,98305.19
2022-09-27T04:28:54.758Z,98306.03
2022-09-27T04:31:23.794Z,98311.28
2022-09-27T04:34:15.244Z,98313.03
2022-09-27T04:36:42.898Z,98313.88
2022-09-27T04:39:18.793Z,98314.75
2022-09-27T04:41:50.586Z,98321.72
2022-09-27T04:44:18.979Z,98313.00
2022-09-27T04:46:51.259Z,98321.72
2022-09-27T04:49:19.712Z,98326.06
2022-09-27T04:51:48.719Z,98320.84
2022-09-27T04:54:17.210Z,98332.16
2022-09-27T04:56:58.623Z,98330.41
2022-09-27T04:59:27.632Z,98333.88
2022-09-27T05:01:59.530Z,98333.88
2022-09-27T05:04:59.490Z,98333.88
2022-09-27T05:07:35.441Z,98338.25
2022-09-27T05:10:10.360Z,98338.25
2022-09-27T05:12:40.284Z,98342.59
2022-09-27T05:15:10.482Z,98340.00
2022-09-27T05:17:58.195Z,98346.06
2022-09-27T05:20:59.409Z,98344.34
2022-09-27T05:23:37.857Z,98359.13
2022-09-27T05:26:06.765Z,98358.25
2022-09-27T05:28:37.055Z,98353.03
2022-09-27T05:31:05.919Z,98342.56
2022-09-27T05:33:34.494Z,98356.50
2022-09-27T05:36:17.666Z,98348.69
2022-09-27T05:38:46.293Z,98349.53
2022-09-27T05:41:15.861Z,98356.47
2022-09-27T05:43:47.167Z,98359.97
2022-09-27T05:46:16.136Z,98373.00
2022-09-27T05:48:45.187Z,98363.44
2022-09-27T05:51:14.329Z,98373.88
2022-09-27T05:53:42.851Z,98387.81
2022-09-27T05:56:22.176Z,98384.31
2022-09-27T05:59:22.098Z,98378.22
2022-09-27T06:02:16.670Z,98380.84
2022-09-27T06:04:47.629Z,98380.84
2022-09-27T06:07:36.011Z,98387.81
2022-09-27T06:10:08.579Z,98375.59
2022-09-27T06:12:38.431Z,98371.25
2022-09-27T06:15:15.687Z,98376.47
2022-09-27T06:17:45.887Z,98380.81
2022-09-27T06:20:18.441Z,98383.44
2022-09-27T06:22:47.975Z,98388.63
2022-09-27T06:25:16.798Z,98387.78
2022-09-27T06:27:59.214Z,98379.09
2022-09-27T06:30:32.585Z,98388.66
2022-09-27T06:33:08.116Z,98382.56
2022-09-27T06:35:42.399Z,98386.94
2022-09-27T06:38:13.747Z,98387.81
2022-09-27T06:40:49.771Z,98389.53
2022-09-27T06:43:23.436Z,98390.44
2022-09-27T06:46:16.079Z,98387.81
2022-09-27T06:49:16.746Z,98400.00
2022-09-27T06:51:45.774Z,98404.34
2022-09-27T06:54:14.165Z,98410.47
2022-09-27T06:56:42.699Z,98415.69
2022-09-27T06:59:28.397Z,98410.47
2022-09-27T07:02:21.328Z,98414.81
2022-09-27T07:04:59.770Z,98420.03
2022-09-27T07:07:40.730Z,98426.13
2022-09-27T07:10:10.199Z,98428.75
2022-09-27T07:12:39.433Z,98434.84
2022-09-27T07:15:08.515Z,98427.88
2022-09-27T07:17:38.424Z,98434.84
2022-09-27T07:20:07.801Z,98434.84
2022-09-27T07:22:41.152Z,98433.09
2022-09-27T07:25:10.798Z,98437.47
2022-09-27T07:27:41.157Z,98427.88
2022-09-27T07:30:12.759Z,98438.31
2022-09-27T07:32:43.394Z,98438.31
2022-09-27T07:35:13.579Z,98440.06
2022-09-27T07:37:43.239Z,98441.81
2022-09-27T07:40:12.995Z,98437.50
2022-09-27T07:42:42.145Z,98450.53
2022-09-27T07:45:11.423Z,98442.69
2022-09-27T07:48:00.083Z,98453.16
2022-09-27T07:50:56.212Z,98448.81
2022-09-27T07:53:42.999Z,98447.06
2022-09-27T07:56:31.650Z,98449.66
2022-09-27T07:59:00.138Z,98449.66
2022-09-27T08:01:28.994Z,98455.78
2022-09-27T08:03:59.139Z,98462.75
2022-09-27T08:06:28.288Z,98461.03
2022-09-27T08:08:57.641Z,98475.84
2022-09-27T08:11:27.118Z,98481.94
2022-09-27T08:13:57.015Z,98481.94
2022-09-27T08:16:30.263Z,98485.44
2022-09-27T08:19:20.010Z,98474.97
2022-09-27T08:21:59.155Z,98485.47
2022-09-27T08:24:53.824Z,98488.06
2022-09-27T08:27:41.825Z,98499.38
2022-09-27T08:30:25.265Z,98501.16
2022-09-27T08:32:57.194Z,98495.91
2022-09-27T08:35:29.143Z,98490.69
2022-09-27T08:38:00.082Z,98503.75
2022-09-27T08:40:40.822Z,98503.75
2022-09-27T08:43:19.731Z,98497.66
2022-09-27T08:46:02.932Z,98497.66
2022-09-27T08:48:32.653Z,98505.50
2022-09-27T08:51:06.173Z,98509.84
2022-09-27T08:53:38.802Z,98500.28
2022-09-27T08:56:09.162Z,98499.41
2022-09-27T08:58:46.608Z,98499.41
2022-09-27T09:01:27.797Z,98509.88
2022-09-27T09:04:05.095Z,98516.84
2022-09-27T09:06:42.322Z,98508.16
2022-09-27T09:09:23.886Z,98502.91
2022-09-27T09:12:32.572Z,98509.91
2022-09-27T09:15:15.766Z,98511.66
2022-09-27T09:18:00.043Z,98511.66
2022-09-27T09:20:58.356Z,98514.25
2022-09-27T09:24:02.830Z,98509.88
2022-09-27T09:26:36.136Z,98504.66
2022-09-27T09:29:17.906Z,98506.38
2022-09-27T09:31:54.833Z,98511.59
2022-09-27T09:34:27.464Z,98510.75
2022-09-27T09:37:02.184Z,98502.06
2022-09-27T09:39:37.245Z,98506.41
2022-09-27T09:42:11.801Z,98509.06
2022-09-27T09:44:48.202Z,98509.06
2022-09-27T09:47:37.223Z,98509.94
2022-09-27T09:50:18.354Z,98505.59
2022-09-27T09:52:51.659Z,98501.25
2022-09-27T09:55:24.741Z,98496.03
2022-09-27T09:58:03.232Z,98503.00
2022-09-27T10:00:41.260Z,98497.78
2022-09-27T10:03:09.720Z,98498.66
2022-09-27T10:05:38.368Z,98494.31
2022-09-27T10:08:17.639Z,98496.09
2022-09-27T10:10:49.470Z,98486.53
2022-09-27T10:13:46.352Z,98485.63
2022-09-27T10:16:18.637Z,98485.63
2022-09-27T10:18:50.201Z,98483.03
2022-09-27T10:21:23.968Z,98483.03
2022-09-27T10:24:15.163Z,98475.22
2022-09-27T10:27:06.521Z,98469.97
2022-09-27T10:29:38.986Z,98468.22
2022-09-27T10:32:23.464Z,98464.72
2022-09-27T10:34:54.669Z,98464.72
2022-09-27T10:37:24.540Z,98469.06
2022-09-27T10:40:27.556Z,98466.44
2022-09-27T10:42:58.618Z,98473.44
2022-09-27T10:45:40.494Z,98470.81
2022-09-27T10:48:22.243Z,98468.22
2022-09-27T10:51:00.954Z,98463.84
2022-09-27T10:53:48.461Z,98467.31
2022-09-27T10:56:29.516Z,98464.72
2022-09-27T10:59:00.930Z,98462.97
2022-09-27T11:01:41.906Z,98459.47
2022-09-27T11:04:32.328Z,98465.56
2022-09-27T11:07:16.343Z,98473.44
2022-09-27T11:09:52.719Z,98462.94
2022-09-27T11:12:23.042Z,98460.34
2022-09-27T11:15:02.401Z,98460.31
2022-09-27T11:17:36.880Z,98457.72
2022-09-27T11:20:17.492Z,98456.81
2022-09-27T11:23:17.716Z,98464.69
2022-09-27T11:26:07.683Z,98453.31
2022-09-27T11:28:49.147Z,98457.66
2022-09-27T11:31:40.838Z,98455.03
2022-09-27T11:34:23.796Z,98455.03
2022-09-27T11:37:13.021Z,98464.63
2022-09-27T11:39:58.418Z,98448.91
2022-09-27T11:43:05.352Z,98448.91
2022-09-27T11:48:54.082Z,98457.66
2022-09-27T11:51:38.669Z,98450.63
2022-09-27T11:54:30.414Z,98445.38
2022-09-27T11:57:05.372Z,98440.97
2022-09-27T11:59:56.168Z,98441.84
2022-09-27T12:02:42.933Z,98440.97
2022-09-27T12:05:30.563Z,98442.72
2022-09-27T12:08:17.197Z,98420.81
2022-09-27T12:10:52.998Z,98429.56
2022-09-27T12:13:30.505Z,98433.06
2022-09-27T12:15:59.925Z,98431.31
2022-09-27T12:18:37.985Z,98429.56
2022-09-27T12:21:13.351Z,98427.84
2022-09-27T12:23:44.863Z,98426.94
2022-09-27T12:26:37.435Z,98434.84
2022-09-27T12:29:14.107Z,98439.22
2022-09-27T12:31:51.747Z,98441.84
2022-09-27T12:34:28.139Z,98434.00
2022-09-27T12:37:04.045Z,98440.09
2022-09-27T12:39:42.506Z,98424.38
2022-09-27T12:42:25.800Z,98437.50
2022-09-27T12:44:59.886Z,98431.38
2022-09-27T12:47:43.374Z,98445.34
2022-09-27T12:50:29.069Z,98434.88
2022-09-27T12:53:05.307Z,98441.91
2022-09-27T12:55:56.423Z,98443.66
2022-09-27T12:58:52.174Z,98441.09
2022-09-27T13:01:35.663Z,98457.72
2022-09-27T13:04:26.246Z,98467.31
2022-09-27T13:07:17.375Z,98458.59
2022-09-27T13:10:21.128Z,98460.34
2022-09-27T13:12:55.038Z,98456.00
2022-09-27T13:15:28.931Z,98464.72
2022-09-27T13:17:59.675Z,98463.84
2022-09-27T13:20:49.179Z,98452.50
2022-09-27T13:24:00.524Z,98447.25
2022-09-27T13:26:50.151Z,98440.28
2022-09-27T13:29:35.394Z,98446.38
2022-09-27T13:32:28.359Z,98455.97
2022-09-27T13:35:19.327Z,98450.72
2022-09-27T13:37:56.796Z,98450.72
2022-09-27T13:40:33.546Z,98444.59
2022-09-27T13:43:48.711Z,98450.72
2022-09-27T13:46:28.043Z,98446.31
2022-09-27T13:49:00.491Z,98454.19
2022-09-27T13:51:47.802Z,98441.94
2022-09-27T13:54:43.397Z,98451.53
2022-09-27T13:57:42.319Z,98446.31
2022-09-27T14:00:18.330Z,98441.94
2022-09-27T14:03:01.599Z,98442.81
2022-09-27T14:05:42.392Z,98439.28
2022-09-27T14:08:22.190Z,98434.03
2022-09-27T14:10:52.039Z,98440.97
2022-09-27T14:13:24.477Z,98434.00
2022-09-27T14:16:08.593Z,98431.38
2022-09-27T14:18:44.985Z,98436.63
2022-09-27T14:21:23.332Z,98439.19
2022-09-27T14:24:24.616Z,98440.06
2022-09-27T14:27:07.165Z,98440.88
2022-09-27T14:29:41.773Z,98434.75
2022-09-27T14:32:14.396Z,98441.69
2022-09-27T14:35:05.886Z,98439.94
2022-09-27T14:37:35.595Z,98433.78
2022-09-27T14:40:21.775Z,98445.97
2022-09-27T14:42:54.931Z,98436.38
2022-09-27T14:45:27.883Z,98452.97
2022-09-27T14:47:58.596Z,98451.22
2022-09-27T14:50:29.615Z,98458.25
2022-09-27T14:53:01.636Z,98450.41
2022-09-27T14:55:34.836Z,98453.03
2022-09-27T14:58:04.646Z,98456.47
2022-09-27T15:00:36.241Z,98448.59
2022-09-27T15:03:10.524Z,98453.81
2022-09-27T15:05:42.730Z,98451.22
2022-09-27T15:08:15.197Z,98459.06
2022-09-27T15:10:44.870Z,98463.41
2022-09-27T15:13:17.119Z,98465.16
2022-09-27T15:15:46.476Z,98456.47
2022-09-27T15:18:45.191Z,98459.06
2022-09-27T15:21:15.935Z,98464.31
2022-09-27T15:23:46.064Z,98458.19
2022-09-27T15:26:17.868Z,98466.06
2022-09-27T15:28:48.591Z,98460.81
2022-09-27T15:31:17.406Z,98467.84
2022-09-27T15:33:55.670Z,98473.06
2022-09-27T15:36:52.218Z,98469.63
2022-09-27T15:39:28.204Z,98466.16
2022-09-27T15:42:08.914Z,98474.91
2022-09-27T15:44:46.742Z,98467.94
2022-09-27T15:47:41.060Z,98471.47
2022-09-27T15:50:35.797Z,98468.00
2022-09-27T15:53:06.645Z,98465.38
2022-09-27T15:55:40.308Z,98469.75
2022-09-27T15:58:16.400Z,98464.53
2022-09-27T16:00:55.180Z,98471.53
2022-09-27T16:03:24.491Z,98476.78
2022-09-27T16:05:56.162Z,98475.94
2022-09-27T16:08:24.822Z,98472.47
2022-09-27T16:10:55.620Z,98478.59
2022-09-27T16:13:27.796Z,98471.63
2022-09-27T16:15:58.859Z,98462.06
2022-09-27T16:18:30.662Z,98452.47
2022-09-27T16:21:00.952Z,98450.72
2022-09-27T16:23:29.243Z,98453.34
2022-09-27T16:25:57.557Z,98442.91
2022-09-27T16:28:26.001Z,98452.50
2022-09-27T16:30:54.357Z,98457.72
2022-09-27T16:33:22.695Z,98458.63
2022-09-27T16:35:51.770Z,98457.75
2022-09-27T16:38:21.385Z,98453.41
2022-09-27T16:40:49.744Z,98452.53
2022-09-27T16:43:18.870Z,98453.38
2022-09-27T16:45:47.618Z,98452.53
2022-09-27T16:48:15.931Z,98443.81
2022-09-27T16:51:01.806Z,98451.66
2022-09-27T16:53:31.467Z,98449.03
2022-09-27T16:56:00.205Z,98442.06
2022-09-27T16:58:30.064Z,98451.66
2022-09-27T17:00:59.403Z,98450.75
2022-09-27T17:03:28.558Z,98443.81
2022-09-27T17:06:02.002Z,98439.44
2022-09-27T17:08:31.681Z,98434.22
2022-09-27T17:11:00.331Z,98433.31
2022-09-27T17:13:28.634Z,98444.66
2022-09-27T17:15:57.120Z,98433.31
2022-09-27T17:18:25.568Z,98433.31
2022-09-27T17:20:53.889Z,98425.47
2022-09-27T17:23:22.194Z,98422.00
2022-09-27T17:25:52.170Z,98432.47
2022-09-27T17:28:20.511Z,98429.84
2022-09-27T17:30:48.846Z,98419.38
2022-09-27T17:33:20.343Z,98417.66
2022-09-27T17:35:48.729Z,98414.16
2022-09-27T17:38:17.150Z,98415.91
2022-09-27T17:40:45.852Z,98415.91
2022-09-27T17:43:15.666Z,98415.91
2022-09-27T17:45:43.923Z,98414.16
2022-09-27T17:48:29.700Z,98417.66
2022-09-27T17:50:58.215Z,98413.31
2022-09-27T17:53:26.565Z,98415.91
2022-09-27T17:56:01.721Z,98408.06
2022-09-27T17:58:31.571Z,98415.03
2022-09-27T18:01:03.195Z,98415.03
2022-09-27T18:03:31.607Z,98410.66
2022-09-27T18:05:59.974Z,98404.53
2022-09-27T18:08:30.415Z,98414.13
2022-09-27T18:11:04.766Z,98414.13
2022-09-27T18:13:37.703Z,98411.50
2022-09-27T18:16:06.222Z,98400.16
2022-09-27T18:18:36.487Z,98397.56
2022-09-27T18:21:05.688Z,98402.78
2022-09-27T18:23:34.395Z,98395.81
2022-09-27T18:26:04.711Z,98394.94
2022-09-27T18:28:34.371Z,98394.09
2022-09-27T18:31:04.567Z,98387.97
2022-09-27T18:33:33.871Z,98392.34
2022-09-27T18:36:06.785Z,98393.19
2022-09-27T18:38:35.962Z,98400.16
2022-09-27T18:41:08.634Z,98384.47
2022-09-27T18:43:39.091Z,98387.97
2022-09-27T18:46:34.017Z,98391.44
2022-09-27T18:48:57.601Z,98397.56
2022-09-27T18:51:27.369Z,98388.84
2022-09-27T18:53:56.980Z,98384.47
2022-09-27T18:56:26.434Z,98389.72
2022-09-27T18:58:56.995Z,98384.47
2022-09-27T19:01:26.371Z,98379.25
2022-09-27T19:03:54.783Z,98375.78
2022-09-27T19:06:24.721Z,98368.78
2022-09-27T19:08:55.404Z,98367.06
2022-09-27T19:11:23.685Z,98365.31
2022-09-27T19:13:53.749Z,98356.59
2022-09-27T19:16:24.326Z,98358.34
2022-09-27T19:18:52.846Z,98357.47
2022-09-27T19:21:23.141Z,98350.50
2022-09-27T19:23:52.629Z,98344.38
2022-09-27T19:26:22.546Z,98347.88
2022-09-27T19:28:51.403Z,98340.91
2022-09-27T19:31:22.066Z,98340.91
2022-09-27T19:33:56.174Z,98340.91
2022-09-27T19:36:27.793Z,98342.63
2022-09-27T19:38:58.510Z,98336.56
2022-09-27T19:41:27.391Z,98327.84
2022-09-27T19:43:56.545Z,98340.91
2022-09-27T19:46:26.531Z,98336.56
2022-09-27T19:48:56.906Z,98328.72
2022-09-27T19:51:27.299Z,98325.22
2022-09-27T19:53:56.727Z,98324.38
2022-09-27T19:56:26.059Z,98319.13
2022-09-27T19:58:55.413Z,98320.88
2022-09-27T20:01:25.273Z,98316.50
2022-09-27T20:03:55.231Z,98312.16
2022-09-27T20:06:24.898Z,98320.00
2022-09-27T20:08:53.376Z,98326.97
2022-09-27T20:11:23.337Z,98322.63
2022-09-27T20:13:54.770Z,98312.19
2022-09-27T20:16:25.086Z,98303.44
2022-09-27T20:18:55.102Z,98299.09
2022-09-27T20:21:27.599Z,98299.97
2022-09-27T20:23:58.280Z,98303.44
2022-09-27T20:26:28.147Z,98303.44
2022-09-27T20:28:57.946Z,98289.50
2022-09-27T20:31:28.152Z,98296.47
2022-09-27T20:33:57.545Z,98282.56
2022-09-27T20:36:29.272Z,98281.69
2022-09-27T20:39:02.792Z,98285.16
2022-09-27T20:41:33.713Z,98282.53
2022-09-27T20:44:04.683Z,98280.78
2022-09-27T20:46:33.930Z,98284.28
2022-09-27T20:49:04.704Z,98281.66
2022-09-27T20:51:36.661Z,98285.16
2022-09-27T20:54:06.479Z,98282.56
2022-09-27T20:56:36.645Z,98281.69
2022-09-27T20:59:11.475Z,98268.59
2022-09-27T21:01:43.592Z,98271.25
2022-09-27T21:04:14.553Z,98269.47
2022-09-27T21:06:45.694Z,98264.25
2022-09-27T21:09:18.935Z,98260.78
2022-09-27T21:11:48.581Z,98254.66
2022-09-27T21:14:17.362Z,98262.53
2022-09-27T21:16:45.795Z,98251.19
2022-09-27T21:19:14.533Z,98245.13
2022-09-27T21:21:44.243Z,98257.28
2022-09-27T21:24:12.622Z,98262.50
2022-09-27T21:26:40.929Z,98259.91
2022-09-27T21:29:11.560Z,98254.66
2022-09-27T21:31:40.025Z,98254.69
2022-09-27T21:34:08.382Z,98250.31
2022-09-27T21:36:38.347Z,98248.56
2022-09-27T21:39:10.167Z,98247.72
2022-09-27T21:41:38.997Z,98243.34
2022-09-27T21:44:08.000Z,98235.53
2022-09-27T21:46:39.549Z,98232.03
2022-09-27T21:49:08.090Z,98225.94
2022-09-27T21:51:38.864Z,98225.09
2022-09-27T21:54:10.380Z,98219.84
2022-09-27T21:56:40.416Z,98218.09
2022-09-27T21:59:12.055Z,98212.91
2022-09-27T22:01:40.825Z,98209.41
2022-09-27T22:04:09.183Z,98215.50
2022-09-27T22:06:38.864Z,98221.59
2022-09-27T22:09:13.384Z,98205.06
2022-09-27T22:11:43.865Z,98205.91
2022-09-27T22:14:13.197Z,98208.53
2022-09-27T22:16:41.881Z,98203.28
2022-09-27T22:19:12.086Z,98205.94
2022-09-27T22:21:41.258Z,98203.31
2022-09-27T22:24:14.299Z,98212.00
2022-09-27T22:26:46.457Z,98206.78
2022-09-27T22:29:15.162Z,98204.16
2022-09-27T22:31:43.574Z,98202.44
2022-09-27T22:34:18.212Z,98205.91
2022-09-27T22:36:46.325Z,98208.53
2022-09-27T22:39:16.161Z,98202.44
2022-09-27T22:41:44.631Z,98198.06
2022-09-27T22:44:12.889Z,98201.56
2022-09-27T22:46:41.257Z,98201.56
2022-09-27T22:49:09.689Z,98199.81
2022-09-27T22:51:38.000Z,98206.81
2022-09-27T22:54:06.641Z,98198.97
2022-09-27T22:56:36.243Z,98193.72
2022-09-27T22:59:04.627Z,98198.09
2022-09-27T23:01:32.886Z,98194.63
2022-09-27T23:04:01.368Z,98196.34
2022-09-27T23:06:29.754Z,98196.34
2022-09-27T23:08:59.284Z,98188.53
2022-09-27T23:11:27.558Z,98185.91
2022-09-27T23:13:57.212Z,98186.75
2022-09-27T23:16:25.570Z,98185.91
2022-09-27T23:18:55.007Z,98178.94
2022-09-27T23:21:24.136Z,98184.16
2022-09-27T23:23:55.011Z,98196.34
2022-09-27T23:26:25.962Z,98186.75
2022-09-27T23:28:55.395Z,98195.47
2022-09-27T23:31:27.066Z,98198.97
2022-09-27T23:33:55.397Z,98187.63
2022-09-27T23:36:26.688Z,98190.22
2022-09-27T23:38:58.545Z,98195.47
2022-09-27T23:41:27.138Z,98199.81
2022-09-27T23:43:55.466Z,98188.50
2022-09-27T23:46:25.250Z,98194.59
2022-09-27T23:48:53.867Z,98189.38
2022-09-27T23:51:22.229Z,98192.84
2022-09-27T23:53:50.527Z,98194.59
2022-09-27T23:56:19.237Z,98184.16
2022-09-27T23:58:47.959Z,98182.41
